createdAt,value
2018-04-02T00:01:22.411Z,24.70
2018-04-02T00:03:50.841Z,24.30
2018-04-02T00:06:18.496Z,24.30
2018-04-02T00:08:46.156Z,24.20
2018-04-02T00:11:13.881Z,24.00
2018-04-02T00:13:42.295Z,23.60
2018-04-02T00:16:10.006Z,23.60
2018-04-02T00:18:37.655Z,23.30
2018-04-02T00:21:05.300Z,23.00
2018-04-02T00:23:32.973Z,22.80
2018-04-02T00:26:00.643Z,22.70
2018-04-02T00:28:28.294Z,22.50
2018-04-02T00:30:55.989Z,22.40
2018-04-02T00:33:24.420Z,22.40
2018-04-02T00:35:52.118Z,22.40
2018-04-02T00:38:20.554Z,22.40
2018-04-02T00:40:48.214Z,22.40
2018-04-02T00:43:15.856Z,22.50
2018-04-02T00:45:43.519Z,22.50
2018-04-02T00:48:11.180Z,22.60
2018-04-02T00:50:38.855Z,22.60
2018-04-02T00:53:06.511Z,22.70
2018-04-02T00:55:34.215Z,22.70
2018-04-02T00:58:01.891Z,22.60
2018-04-02T01:00:30.364Z,22.50
2018-04-02T01:02:58.794Z,22.50
2018-04-02T01:05:26.465Z,22.50
2018-04-02T01:07:54.150Z,22.60
2018-04-02T01:10:21.830Z,22.60
2018-04-02T01:12:50.229Z,22.60
2018-04-02T01:15:17.883Z,22.60
2018-04-02T01:17:45.555Z,22.60
2018-04-02T01:20:13.263Z,22.40
2018-04-02T01:22:40.911Z,22.30
2018-04-02T01:25:08.600Z,22.30
2018-04-02T01:27:37.048Z,22.40
2018-04-02T01:30:04.735Z,22.30
2018-04-02T01:32:32.404Z,22.30
2018-04-02T01:35:00.845Z,22.30
2018-04-02T01:37:28.537Z,22.30
2018-04-02T01:39:56.223Z,22.30
2018-04-02T01:42:24.656Z,22.30
2018-04-02T01:44:52.392Z,22.30
2018-04-02T01:47:20.047Z,22.30
2018-04-02T01:49:47.698Z,22.30
2018-04-02T01:52:15.656Z,22.30
2018-04-02T01:54:43.344Z,22.30
2018-04-02T01:57:11.026Z,22.40
2018-04-02T01:59:38.732Z,22.40
2018-04-02T02:02:07.216Z,22.30
2018-04-02T02:04:35.620Z,22.20
2018-04-02T02:07:03.327Z,22.20
2018-04-02T02:09:30.963Z,22.10
2018-04-02T02:11:58.629Z,22.00
2018-04-02T02:14:26.302Z,21.90
2018-04-02T02:16:53.947Z,22.00
2018-04-02T02:19:21.601Z,22.00
2018-04-02T02:21:49.243Z,22.00
2018-04-02T02:24:16.906Z,22.10
2018-04-02T02:26:44.637Z,22.10
2018-04-02T02:29:13.073Z,22.10
2018-04-02T02:31:40.739Z,22.10
2018-04-02T02:34:08.416Z,22.10
2018-04-02T02:36:36.080Z,22.10
2018-04-02T02:39:03.884Z,22.00
2018-04-02T02:41:31.541Z,21.90
2018-04-02T02:43:59.294Z,21.90
2018-04-02T02:46:26.963Z,21.80
2018-04-02T02:48:54.668Z,21.60
2018-04-02T02:51:22.357Z,21.60
2018-04-02T02:53:50.796Z,21.60
2018-04-02T02:56:18.568Z,21.50
2018-04-02T02:58:46.247Z,21.60
2018-04-02T03:01:13.931Z,21.60
2018-04-02T03:03:42.397Z,21.80
2018-04-02T03:06:10.820Z,21.80
2018-04-02T03:08:38.520Z,21.80
2018-04-02T03:11:06.192Z,21.70
2018-04-02T03:13:33.857Z,21.70
2018-04-02T03:16:02.270Z,21.70
2018-04-02T03:18:29.935Z,21.60
2018-04-02T03:20:57.575Z,21.70
2018-04-02T03:23:26.084Z,21.80
2018-04-02T03:25:53.778Z,21.80
2018-04-02T03:28:21.457Z,21.90
2018-04-02T03:30:49.299Z,21.90
2018-04-02T03:33:16.953Z,22.00
2018-04-02T03:35:44.620Z,22.20
2018-04-02T03:38:12.306Z,22.30
2018-04-02T03:40:40.749Z,22.90
2018-04-02T03:43:08.415Z,22.40
2018-04-02T03:45:36.062Z,22.40
2018-04-02T03:48:03.763Z,22.50
2018-04-02T03:50:32.195Z,22.70
2018-04-02T03:53:00.619Z,22.70
2018-04-02T03:55:28.297Z,22.70
2018-04-02T03:57:56.744Z,22.70
2018-04-02T04:00:24.431Z,22.70
2018-04-02T04:02:52.902Z,22.90
2018-04-02T04:05:20.591Z,23.00
2018-04-02T04:07:48.291Z,22.90
2018-04-02T04:10:16.007Z,22.90
2018-04-02T04:12:44.435Z,22.90
2018-04-02T04:15:12.093Z,22.90
2018-04-02T04:17:39.756Z,22.90
2018-04-02T04:20:07.441Z,22.80
2018-04-02T04:22:35.116Z,22.70
2018-04-02T04:25:03.663Z,22.80
2018-04-02T04:27:31.362Z,22.80
2018-04-02T04:29:59.834Z,22.90
2018-04-02T04:32:28.259Z,23.00
2018-04-02T04:34:55.950Z,23.00
2018-04-02T04:37:23.632Z,22.90
2018-04-02T04:39:51.285Z,23.00
2018-04-02T04:42:18.956Z,23.00
2018-04-02T04:44:47.406Z,23.00
2018-04-02T04:47:15.066Z,23.00
2018-04-02T04:49:42.754Z,23.00
2018-04-02T04:52:10.404Z,23.10
2018-04-02T04:54:38.840Z,23.30
2018-04-02T04:57:06.650Z,23.20
2018-04-02T04:59:35.255Z,23.30
2018-04-02T05:02:03.115Z,23.30
2018-04-02T05:04:30.923Z,23.30
2018-04-02T05:06:58.769Z,23.30
2018-04-02T05:09:26.604Z,23.30
2018-04-02T05:11:54.430Z,23.30
2018-04-02T05:14:22.236Z,23.40
2018-04-02T05:16:50.816Z,23.60
2018-04-02T05:19:19.408Z,23.60
2018-04-02T05:21:47.253Z,23.60
2018-04-02T05:24:15.848Z,23.70
2018-04-02T05:26:44.425Z,23.70
2018-04-02T05:29:13.005Z,23.80
2018-04-02T05:31:41.595Z,23.80
2018-04-02T05:34:09.411Z,23.80
2018-04-02T05:36:37.232Z,23.80
2018-04-02T05:39:06.012Z,23.80
2018-04-02T05:41:33.826Z,23.90
2018-04-02T05:44:01.744Z,24.00
2018-04-02T05:46:29.538Z,24.00
2018-04-02T05:48:57.369Z,24.10
2018-04-02T05:51:25.969Z,24.10
2018-04-02T05:53:53.774Z,24.10
2018-04-02T05:56:21.681Z,24.10
2018-04-02T05:58:50.250Z,24.20
2018-04-02T06:01:18.821Z,24.30
2018-04-02T06:03:46.636Z,24.20
2018-04-02T06:06:14.460Z,24.40
2018-04-02T06:08:43.039Z,24.50
2018-04-02T06:11:11.669Z,24.60
2018-04-02T06:13:39.486Z,24.60
2018-04-02T06:16:08.091Z,24.90
2018-04-02T06:18:35.990Z,24.90
2018-04-02T06:21:03.817Z,25.00
2018-04-02T06:23:32.444Z,25.20
2018-04-02T06:26:00.298Z,25.20
2018-04-02T06:28:28.206Z,25.20
2018-04-02T06:30:56.036Z,25.50
2018-04-02T06:33:23.865Z,25.40
2018-04-02T06:35:51.716Z,25.50
2018-04-02T06:38:20.305Z,25.80
2018-04-02T06:40:48.891Z,25.90
2018-04-02T06:43:17.474Z,25.90
2018-04-02T06:45:45.275Z,25.90
2018-04-02T06:48:13.079Z,26.00
2018-04-02T06:50:40.913Z,26.00
2018-04-02T06:53:09.228Z,26.10
2018-04-02T06:55:37.784Z,26.40
2018-04-02T06:58:05.643Z,26.40
2018-04-02T07:00:33.473Z,26.70
2018-04-02T07:03:01.337Z,26.90
2018-04-02T07:05:29.152Z,27.10
2018-04-02T07:07:56.965Z,27.30
2018-04-02T07:10:24.749Z,27.40
2018-04-02T07:12:52.540Z,27.60
2018-04-02T07:15:20.383Z,27.70
2018-04-02T07:17:48.193Z,28.00
2018-04-02T07:20:16.782Z,28.70
2018-04-02T07:22:44.634Z,28.70
2018-04-02T07:25:13.213Z,29.30
2018-04-02T07:27:41.839Z,29.30
2018-04-02T07:30:09.649Z,29.20
2018-04-02T07:32:37.475Z,29.20
2018-04-02T07:35:05.293Z,29.20
2018-04-02T07:37:33.870Z,29.00
2018-04-02T07:40:02.465Z,28.90
2018-04-02T07:42:31.051Z,28.90
2018-04-02T07:44:59.651Z,29.10
2018-04-02T07:47:27.466Z,29.10
2018-04-02T07:49:55.332Z,29.30
2018-04-02T07:52:23.206Z,29.50
2018-04-02T07:54:51.036Z,29.70
2018-04-02T07:57:18.859Z,29.80
2018-04-02T07:59:46.678Z,29.80
2018-04-02T08:02:14.508Z,30.00
2018-04-02T08:04:42.310Z,30.10
2018-04-02T08:07:10.142Z,30.30
2018-04-02T08:09:37.964Z,30.60
2018-04-02T08:12:06.580Z,31.00
2018-04-02T08:14:34.491Z,31.00
2018-04-02T08:17:02.399Z,31.20
2018-04-02T08:19:30.217Z,31.30
2018-04-02T08:21:58.025Z,31.50
2018-04-02T08:24:26.607Z,31.70
2018-04-02T08:26:55.181Z,31.60
2018-04-02T08:29:23.741Z,31.60
2018-04-02T08:31:51.564Z,31.50
2018-04-02T08:34:19.342Z,31.70
2018-04-02T08:36:47.146Z,31.60
2018-04-02T08:39:15.696Z,31.90
2018-04-02T08:41:43.490Z,31.80
2018-04-02T08:44:12.061Z,32.20
2018-04-02T08:46:39.932Z,32.20
2018-04-02T08:49:08.535Z,32.70
2018-04-02T08:51:37.163Z,33.10
2018-04-02T08:54:04.989Z,33.10
2018-04-02T08:56:32.859Z,33.50
2018-04-02T08:59:00.715Z,33.90
2018-04-02T09:01:28.538Z,34.00
2018-04-02T09:03:56.372Z,34.10
2018-04-02T09:06:24.158Z,34.10
2018-04-02T09:08:51.991Z,34.10
2018-04-02T09:11:19.792Z,33.80
2018-04-02T09:13:47.592Z,33.30
2018-04-02T09:16:16.190Z,32.60
2018-04-02T09:18:44.026Z,32.50
2018-04-02T09:21:11.813Z,31.50
2018-04-02T09:23:39.656Z,30.10
2018-04-02T09:26:08.311Z,29.10
2018-04-02T09:28:36.192Z,29.10
2018-04-02T09:31:04.092Z,28.80
2018-04-02T09:33:32.737Z,28.20
2018-04-02T09:36:00.594Z,28.20
2018-04-02T09:38:28.456Z,28.10
2018-04-02T09:40:56.261Z,27.90
2018-04-02T09:43:24.821Z,27.90
2018-04-02T09:45:52.619Z,27.80
2018-04-02T09:48:20.429Z,27.40
2018-04-02T09:50:48.256Z,27.80
2018-04-02T09:53:16.092Z,27.90
2018-04-02T09:55:44.727Z,28.00
2018-04-02T09:58:12.543Z,27.90
2018-04-02T10:00:41.165Z,28.10
2018-04-02T10:03:08.996Z,28.00
2018-04-02T10:05:37.540Z,28.20
2018-04-02T10:08:05.289Z,28.20
2018-04-02T10:10:33.127Z,28.30
2018-04-02T10:13:00.871Z,28.40
2018-04-02T10:15:28.690Z,28.50
2018-04-02T10:17:56.422Z,28.50
2018-04-02T10:20:24.193Z,28.60
2018-04-02T10:22:51.954Z,28.70
2018-04-02T10:25:19.726Z,28.80
2018-04-02T10:27:47.481Z,28.90
2018-04-02T10:30:15.213Z,29.00
2018-04-02T10:32:43.751Z,29.20
2018-04-02T10:35:11.517Z,29.10
2018-04-02T10:37:39.273Z,29.20
2018-04-02T10:40:07.029Z,29.40
2018-04-02T10:42:34.781Z,29.60
2018-04-02T10:45:02.585Z,29.60
2018-04-02T10:47:30.339Z,29.40
2018-04-02T10:49:58.104Z,29.50
2018-04-02T10:52:25.833Z,29.60
2018-04-02T10:54:53.560Z,29.60
2018-04-02T10:57:21.336Z,29.70
2018-04-02T10:59:49.116Z,29.70
2018-04-02T11:02:16.874Z,29.80
2018-04-02T11:04:44.643Z,29.80
2018-04-02T11:07:12.376Z,29.90
2018-04-02T11:09:40.914Z,30.00
2018-04-02T11:12:08.676Z,30.00
2018-04-02T11:14:36.453Z,30.00
2018-04-02T11:17:04.227Z,30.10
2018-04-02T11:19:31.971Z,30.30
2018-04-02T11:21:59.728Z,30.20
2018-04-02T11:24:27.477Z,30.10
2018-04-02T11:26:55.227Z,30.00
2018-04-02T11:29:22.966Z,30.00
2018-04-02T11:31:50.716Z,30.20
2018-04-02T11:34:19.229Z,30.50
2018-04-02T11:36:47.007Z,30.40
2018-04-02T11:39:14.787Z,30.50
2018-04-02T11:41:42.517Z,30.60
2018-04-02T11:44:10.288Z,30.50
2018-04-02T11:46:38.040Z,30.30
2018-04-02T11:49:05.814Z,30.30
2018-04-02T11:51:33.556Z,30.30
2018-04-02T11:54:01.312Z,30.10
2018-04-02T11:56:29.080Z,30.00
2018-04-02T11:58:56.864Z,29.90
2018-04-02T12:01:24.640Z,29.80
2018-04-02T12:03:52.419Z,29.70
2018-04-02T12:06:20.201Z,29.70
2018-04-02T12:08:47.932Z,29.80
2018-04-02T12:11:15.756Z,30.00
2018-04-02T12:13:43.509Z,29.90
2018-04-02T12:16:12.020Z,29.80
2018-04-02T12:18:39.795Z,29.80
2018-04-02T12:21:07.633Z,29.80
2018-04-02T12:23:35.392Z,29.80
2018-04-02T12:26:03.146Z,29.80
2018-04-02T12:28:30.919Z,29.70
2018-04-02T12:30:58.684Z,29.70
2018-04-02T12:33:26.451Z,29.90
2018-04-02T12:35:54.223Z,30.00
2018-04-02T12:38:21.969Z,30.00
2018-04-02T12:40:49.769Z,30.10
2018-04-02T12:43:17.532Z,30.10
2018-04-02T12:45:45.349Z,30.30
2018-04-02T12:48:13.123Z,30.50
2018-04-02T12:50:40.862Z,30.40
2018-04-02T12:53:09.361Z,30.20
2018-04-02T12:55:37.140Z,30.20
2018-04-02T12:58:04.893Z,30.20
2018-04-02T13:00:32.618Z,30.30
2018-04-02T13:03:00.435Z,30.40
2018-04-02T13:05:28.207Z,30.20
2018-04-02T13:07:55.944Z,30.50
2018-04-02T13:10:23.677Z,30.60
2018-04-02T13:12:52.205Z,30.60
2018-04-02T13:15:19.973Z,30.60
2018-04-02T13:17:47.713Z,30.70
2018-04-02T13:20:15.464Z,30.70
2018-04-02T13:22:44.012Z,30.70
2018-04-02T13:25:11.777Z,30.70
2018-04-02T13:27:39.529Z,30.60
2018-04-02T13:30:07.276Z,30.60
2018-04-02T13:32:35.064Z,30.60
2018-04-02T13:35:02.814Z,30.50
2018-04-02T13:37:30.585Z,30.50
2018-04-02T13:39:58.337Z,30.40
2018-04-02T13:42:26.092Z,30.40
2018-04-02T13:44:53.866Z,31.10
2018-04-02T13:47:21.637Z,30.50
2018-04-02T13:49:49.396Z,30.50
2018-04-02T13:52:17.149Z,30.50
2018-04-02T13:54:44.901Z,30.60
2018-04-02T13:57:12.634Z,30.50
2018-04-02T13:59:40.388Z,30.50
2018-04-02T14:02:08.888Z,30.50
2018-04-02T14:04:36.644Z,30.50
2018-04-02T14:07:04.411Z,30.60
2018-04-02T14:09:32.186Z,30.50
2018-04-02T14:11:59.976Z,30.50
2018-04-02T14:14:27.721Z,30.60
2018-04-02T14:16:55.456Z,30.50
2018-04-02T14:19:23.204Z,30.50
2018-04-02T14:21:51.727Z,30.60
2018-04-02T14:24:19.697Z,30.60
2018-04-02T14:26:47.441Z,30.60
2018-04-02T14:29:15.259Z,30.70
2018-04-02T14:31:43.004Z,30.70
2018-04-02T14:34:10.767Z,30.80
2018-04-02T14:36:38.576Z,30.80
2018-04-02T14:39:06.362Z,30.90
2018-04-02T14:41:34.125Z,31.00
2018-04-02T14:44:01.865Z,31.00
2018-04-02T14:46:29.681Z,31.10
2018-04-02T14:48:57.554Z,31.20
2018-04-02T14:51:25.338Z,31.30
2018-04-02T14:53:53.846Z,32.10
2018-04-02T14:56:21.624Z,31.40
2018-04-02T14:58:49.366Z,31.40
2018-04-02T15:01:17.126Z,31.40
2018-04-02T15:03:44.874Z,31.50
2018-04-02T15:06:13.384Z,31.50
2018-04-02T15:08:41.905Z,31.50
2018-04-02T15:11:09.767Z,31.50
2018-04-02T15:13:37.588Z,31.40
2018-04-02T15:16:05.432Z,31.30
2018-04-02T15:18:34.173Z,31.30
2018-04-02T15:21:01.978Z,31.30
2018-04-02T15:23:30.602Z,31.60
2018-04-02T15:25:58.432Z,31.50
2018-04-02T15:28:27.004Z,31.60
2018-04-02T15:30:55.659Z,31.70
2018-04-02T15:33:23.503Z,31.60
2018-04-02T15:35:51.332Z,31.70
2018-04-02T15:38:19.149Z,31.70
2018-04-02T15:40:46.984Z,31.70
2018-04-02T15:43:14.844Z,31.70
2018-04-02T15:45:42.732Z,31.70
2018-04-02T15:48:10.556Z,31.80
2018-04-02T15:50:39.202Z,32.30
2018-04-02T15:53:07.051Z,32.10
2018-04-02T15:55:34.928Z,33.00
2018-04-02T15:58:02.764Z,32.40
2018-04-02T16:00:30.569Z,32.60
2018-04-02T16:02:58.368Z,32.80
2018-04-02T16:05:26.224Z,33.10
2018-04-02T16:07:54.819Z,33.50
2018-04-02T16:10:22.642Z,33.50
2018-04-02T16:12:50.516Z,33.70
2018-04-02T16:15:18.479Z,34.00
2018-04-02T16:17:46.326Z,34.10
2018-04-02T16:20:14.201Z,34.20
2018-04-02T16:22:42.059Z,34.20
2018-04-02T16:25:09.889Z,34.20
2018-04-02T16:27:37.742Z,34.20
2018-04-02T16:30:05.572Z,34.30
2018-04-02T16:32:33.384Z,34.40
2018-04-02T16:35:01.232Z,34.60
2018-04-02T16:37:29.052Z,35.00
2018-04-02T16:39:56.860Z,35.80
2018-04-02T16:42:25.491Z,37.20
2018-04-02T16:44:53.304Z,37.00
2018-04-02T16:47:21.895Z,37.50
2018-04-02T16:49:50.464Z,37.70
2018-04-02T16:52:19.046Z,37.90
2018-04-02T16:54:47.633Z,38.10
2018-04-02T16:57:16.274Z,38.30
2018-04-02T16:59:44.103Z,38.20
2018-04-02T17:02:12.903Z,38.60
2018-04-02T17:04:40.781Z,38.80
2018-04-02T17:07:08.592Z,39.00
2018-04-02T17:09:37.223Z,39.50
2018-04-02T17:12:05.063Z,39.50
2018-04-02T17:14:33.043Z,39.60
2018-04-02T17:17:00.909Z,39.70
2018-04-02T17:19:28.712Z,39.80
2018-04-02T17:24:30.480Z,40.10
2018-04-02T17:26:58.382Z,40.20
2018-04-02T17:29:26.981Z,40.40
2018-04-02T17:31:54.823Z,40.40
2018-04-02T17:34:23.419Z,40.60
2018-04-02T17:36:51.246Z,40.60
2018-04-02T17:39:19.073Z,40.70
2018-04-02T17:41:47.004Z,40.70
2018-04-02T17:44:15.586Z,40.80
2018-04-02T17:46:44.203Z,40.80
2018-04-02T17:49:12.147Z,40.80
2018-04-02T17:51:39.960Z,40.90
2018-04-02T17:54:07.752Z,40.90
2018-04-02T17:56:36.408Z,41.00
2018-04-02T17:59:04.262Z,40.90
2018-04-02T18:01:32.135Z,41.00
2018-04-02T18:03:59.953Z,41.00
2018-04-02T18:06:27.885Z,41.00
2018-04-02T18:08:55.777Z,41.00
2018-04-02T18:11:24.356Z,41.00
2018-04-02T18:13:52.959Z,41.00
2018-04-02T18:16:20.789Z,40.90
2018-04-02T18:18:49.392Z,41.00
2018-04-02T18:21:17.977Z,41.00
2018-04-02T18:23:45.878Z,40.90
2018-04-02T18:26:13.758Z,41.00
2018-04-02T18:28:41.590Z,40.90
2018-04-02T18:31:09.392Z,41.00
2018-04-02T18:33:37.232Z,41.10
2018-04-02T18:36:05.077Z,41.10
2018-04-02T18:38:32.915Z,41.20
2018-04-02T18:41:00.734Z,41.80
2018-04-02T18:43:28.588Z,41.20
2018-04-02T18:45:56.429Z,41.20
2018-04-02T18:48:24.265Z,41.20
2018-04-02T18:50:52.116Z,41.30
2018-04-02T18:53:19.969Z,41.30
2018-04-02T18:55:48.568Z,41.40
2018-04-02T18:58:16.381Z,41.30
2018-04-02T19:00:44.203Z,41.40
2018-04-02T19:03:12.065Z,41.30
2018-04-02T19:05:39.870Z,41.20
2018-04-02T19:08:07.680Z,41.30
2018-04-02T19:10:35.572Z,41.30
2018-04-02T19:13:04.174Z,41.40
2018-04-02T19:15:32.014Z,41.30
2018-04-02T19:17:59.868Z,41.30
2018-04-02T19:20:27.730Z,41.30
2018-04-02T19:22:55.552Z,41.40
2018-04-02T19:25:23.407Z,41.40
2018-04-02T19:27:51.223Z,41.50
2018-04-02T19:30:19.071Z,41.50
2018-04-02T19:32:46.992Z,41.60
2018-04-02T19:35:15.597Z,41.80
2018-04-02T19:37:43.421Z,41.80
2018-04-02T19:40:12.005Z,41.90
2018-04-02T19:42:40.577Z,41.90
2018-04-02T19:45:08.399Z,41.80
2018-04-02T19:47:36.240Z,42.30
2018-04-02T19:50:04.101Z,41.80
2018-04-02T19:52:31.935Z,41.90
2018-04-02T19:54:59.769Z,41.90
2018-04-02T19:57:27.651Z,42.00
2018-04-02T19:59:55.462Z,41.90
2018-04-02T20:02:23.305Z,41.80
2018-04-02T20:04:51.904Z,41.70
2018-04-02T20:07:19.740Z,41.70
2018-04-02T20:09:47.606Z,41.70
2018-04-02T20:12:15.479Z,41.60
2018-04-02T20:14:44.091Z,41.70
2018-04-02T20:17:11.943Z,41.60
2018-04-02T20:19:40.547Z,41.50
2018-04-02T20:22:08.982Z,41.50
2018-04-02T20:24:37.236Z,41.50
2018-04-02T20:27:06.254Z,41.30
2018-04-02T20:29:34.185Z,41.20
2018-04-02T20:32:02.064Z,41.20
2018-04-02T20:34:29.976Z,41.10
2018-04-02T20:36:57.827Z,40.90
2018-04-02T20:39:26.411Z,40.50
2018-04-02T20:41:54.855Z,40.40
2018-04-02T20:44:22.515Z,40.30
2018-04-02T20:46:50.217Z,40.30
2018-04-02T20:49:18.628Z,40.10
2018-04-02T20:51:46.344Z,40.10
2018-04-02T20:54:14.047Z,40.00
2018-04-02T20:56:42.906Z,39.80
2018-04-02T20:59:10.631Z,39.80
2018-04-02T21:01:38.268Z,39.60
2018-04-02T21:04:05.921Z,39.40
2018-04-02T21:06:33.606Z,39.30
2018-04-02T21:09:01.255Z,39.20
2018-04-02T21:11:28.990Z,39.10
2018-04-02T21:13:57.515Z,39.00
2018-04-02T21:16:25.238Z,39.00
2018-04-02T21:18:52.936Z,39.00
2018-04-02T21:21:20.589Z,39.00
2018-04-02T21:23:48.255Z,39.00
2018-04-02T21:26:15.953Z,39.00
2018-04-02T21:28:43.622Z,39.00
2018-04-02T21:31:12.063Z,39.00
2018-04-02T21:33:39.726Z,39.00
2018-04-02T21:36:07.380Z,39.00
2018-04-02T21:38:35.067Z,39.00
2018-04-02T21:41:02.803Z,39.00
2018-04-02T21:43:30.446Z,39.00
2018-04-02T21:45:58.135Z,39.00
2018-04-02T21:48:25.907Z,39.00
2018-04-02T21:50:53.580Z,39.00
2018-04-02T21:53:21.251Z,39.00
2018-04-02T21:55:49.706Z,39.00
2018-04-02T21:58:17.383Z,38.90
2018-04-02T22:00:45.071Z,39.00
2018-04-02T22:03:13.499Z,39.00
2018-04-02T22:05:41.158Z,39.00
2018-04-02T22:08:09.869Z,39.00
2018-04-02T22:10:37.567Z,39.00
2018-04-02T22:13:05.258Z,39.10
2018-04-02T22:15:32.916Z,39.10
2018-04-02T22:18:00.577Z,39.10
2018-04-02T22:20:28.266Z,39.10
2018-04-02T22:22:56.003Z,39.20
2018-04-02T22:25:23.707Z,39.10
2018-04-02T22:27:52.150Z,39.20
2018-04-02T22:30:19.822Z,39.10
2018-04-02T22:32:47.495Z,39.20
2018-04-02T22:35:15.174Z,39.20
2018-04-02T22:37:43.603Z,39.20
2018-04-02T22:40:11.322Z,39.10
2018-04-02T22:42:40.350Z,39.10
2018-04-02T22:45:08.079Z,39.10
2018-04-02T22:47:36.575Z,39.20
2018-04-02T22:50:04.248Z,39.20
2018-04-02T22:52:31.896Z,39.20
2018-04-02T22:54:59.617Z,39.20
2018-04-02T22:57:28.160Z,39.30
2018-04-02T22:59:55.820Z,39.20
2018-04-02T23:02:23.520Z,39.30
2018-04-02T23:04:51.195Z,39.30
2018-04-02T23:07:19.638Z,39.30
2018-04-02T23:09:48.110Z,39.30
2018-04-02T23:12:15.777Z,39.30
2018-04-02T23:14:43.436Z,39.30
2018-04-02T23:17:11.124Z,39.30
2018-04-02T23:19:39.587Z,39.40
2018-04-02T23:22:07.256Z,39.40
2018-04-02T23:24:34.937Z,39.40
2018-04-02T23:27:03.385Z,39.40
2018-04-02T23:29:31.084Z,39.40
2018-04-02T23:31:58.799Z,39.40
2018-04-02T23:34:26.457Z,40.10
2018-04-02T23:36:54.118Z,39.50
2018-04-02T23:39:21.765Z,39.40
2018-04-02T23:41:49.471Z,39.50
2018-04-02T23:44:17.922Z,39.50
2018-04-02T23:46:45.590Z,39.50
2018-04-02T23:49:13.279Z,39.40
2018-04-02T23:51:41.702Z,39.40
2018-04-02T23:54:09.611Z,39.40
2018-04-02T23:56:37.306Z,39.40
2018-04-02T23:59:04.975Z,39.40
